Time;durP1;ratioP1;P1;durP2;ratioP2;P2;SDS_P1;SDS_P2;PMS_P1;PMS_P2;Temp;Humidity;BMP_temperature;BMP_pressure;BME280_temperature;BME280_humidity;BME280_pressure;Samples;Min_cycle;Max_cycle;Signal;HPM_P1;HPM_P2
2022/04/28 00:00:36;;;;;;;8.93;4.28;;;;;;;10.92;42.27;101065.28;4990155;28;20053;-59
2022/04/28 00:03:04;;;;;;;8.18;4.07;;;;;;;10.88;42.54;101063.66;4992102;28;20482;-56
2022/04/28 00:05:30;;;;;;;10.35;4.43;;;;;;;10.84;42.72;101059.44;4991634;28;20150;-61
2022/04/28 00:07:57;;;;;;;9.32;4.53;;;;;;;10.79;42.57;101067.50;4991911;28;20058;-59
2022/04/28 00:10:24;;;;;;;10.60;4.70;;;;;;;10.75;43.02;101065.88;4991347;28;20054;-58
2022/04/28 00:12:50;;;;;;;8.77;4.18;;;;;;;10.71;43.20;101073.06;4990519;28;20066;-59
2022/04/28 00:15:17;;;;;;;11.20;5.07;;;;;;;10.69;43.31;101074.84;4991131;28;20062;-61
2022/04/28 00:17:44;;;;;;;9.45;4.97;;;;;;;10.66;43.49;101078.47;4991890;28;20081;-57
2022/04/28 00:20:11;;;;;;;9.68;4.78;;;;;;;10.65;43.41;101068.84;4991052;28;20162;-62
2022/04/28 00:22:37;;;;;;;9.35;4.55;;;;;;;10.63;43.34;101072.47;4992067;28;20050;-60
2022/04/28 00:25:05;;;;;;;8.60;4.32;;;;;;;10.60;43.32;101070.81;4990492;28;20050;-58
2022/04/28 00:27:33;;;;;;;10.35;4.32;;;;;;;10.59;43.29;101070.84;4989080;28;20050;-55
2022/04/28 00:30:00;;;;;;;9.13;4.50;;;;;;;10.55;43.22;101065.69;4990232;28;20197;-55
2022/04/28 00:32:26;;;;;;;9.77;5.22;;;;;;;10.51;43.46;101071.13;4991276;28;20498;-54
2022/04/28 00:34:53;;;;;;;12.73;5.65;;;;;;;10.47;43.72;101073.00;4991523;28;20058;-61
2022/04/28 00:37:21;;;;;;;11.60;5.00;;;;;;;10.42;43.54;101070.50;4990751;28;20464;-57
2022/04/28 00:39:48;;;;;;;9.07;5.32;;;;;;;10.39;43.73;101070.59;4991124;28;20061;-58
2022/04/28 00:42:17;;;;;;;10.68;5.05;;;;;;;10.37;43.81;101076.84;4990845;28;20077;-58
2022/04/28 00:44:43;;;;;;;7.78;5.05;;;;;;;10.33;43.73;101073.47;4991405;28;20621;-60
2022/04/28 00:47:10;;;;;;;8.82;4.97;;;;;;;10.29;44.03;101071.84;4991227;28;20054;-56
2022/04/28 00:52:24;;;;;;;8.10;4.18;;;;;;;10.24;43.86;101079.91;4990711;28;20051;-55
2022/04/28 00:54:55;;;;;;;11.30;4.85;;;;;;;10.20;45.05;101072.19;4989807;28;20062;-57
2022/04/28 00:57:22;;;;;;;14.05;5.95;;;;;;;10.19;44.31;101073.06;4990804;28;20481;-59
2022/04/28 00:59:50;;;;;;;16.80;6.35;;;;;;;10.13;44.63;101069.75;4990815;28;20042;-56
2022/04/28 01:02:18;;;;;;;12.07;5.93;;;;;;;10.11;44.52;101066.31;4989399;28;20050;-57
2022/04/28 01:04:47;;;;;;;16.27;5.93;;;;;;;10.08;45.03;101070.81;4989864;28;20054;-56
2022/04/28 01:07:14;;;;;;;13.75;5.82;;;;;;;10.06;44.79;101068.25;4990342;28;20050;-60
2022/04/28 01:09:41;;;;;;;8.13;5.80;;;;;;;10.05;44.88;101071.75;4989462;28;20517;-56
2022/04/28 01:12:14;;;;;;;10.88;5.32;;;;;;;10.02;45.51;101074.53;4990451;28;20498;-53
2022/04/28 01:14:44;;;;;;;11.45;5.88;;;;;;;10.00;45.35;101069.31;4991047;28;20058;-51
2022/04/28 01:17:12;;;;;;;11.35;4.80;;;;;;;9.99;44.58;101072.81;4989150;28;20487;-53
2022/04/28 01:19:39;;;;;;;12.85;6.00;;;;;;;9.99;45.01;101074.63;4989559;28;20047;-60
2022/04/28 01:22:06;;;;;;;11.30;6.00;;;;;;;9.96;44.63;101074.72;4990578;28;20065;-61
2022/04/28 01:24:33;;;;;;;10.30;5.25;;;;;;;9.94;45.15;101080.00;4991134;28;20057;-57
2022/04/28 01:27:02;;;;;;;9.68;5.20;;;;;;;9.92;45.34;101071.34;4990825;28;20062;-60
2022/04/28 01:29:33;;;;;;;9.35;5.60;;;;;;;9.89;45.94;101076.69;4990428;28;20042;-55
2022/04/28 01:32:00;;;;;;;13.98;5.95;;;;;;;9.90;45.31;101073.13;4991115;28;20046;-56
2022/04/28 01:34:27;;;;;;;14.52;6.22;;;;;;;9.90;45.46;101074.00;4990380;28;20060;-56
2022/04/28 01:36:54;;;;;;;10.88;5.82;;;;;;;9.92;45.67;101073.97;4990791;28;20054;-58
2022/04/28 01:39:21;;;;;;;14.88;5.72;;;;;;;9.91;45.57;101074.88;4992645;28;20058;-58
2022/04/28 01:41:49;;;;;;;14.80;6.10;;;;;;;9.91;45.57;101074.88;4994971;28;20061;-65
2022/04/28 01:44:16;;;;;;;11.13;5.80;;;;;;;9.91;45.53;101077.50;4994361;28;20055;-56
2022/04/28 01:46:43;;;;;;;12.35;5.97;;;;;;;9.90;45.65;101083.66;4994718;28;20054;-59
2022/04/28 01:49:09;;;;;;;13.70;6.13;;;;;;;9.89;45.85;101076.69;4994175;28;20058;-58
2022/04/28 01:57:06;;;;;;;13.35;6.35;;;;;;;9.85;45.40;101077.69;4994512;28;20490;-58
2022/04/28 01:59:32;;;;;;;15.45;6.85;;;;;;;9.81;45.62;101081.31;4993854;28;20058;-58
2022/04/28 02:01:59;;;;;;;11.15;5.55;;;;;;;9.76;45.53;101076.25;4994399;28;20061;-54
2022/04/28 02:04:26;;;;;;;14.07;6.07;;;;;;;9.71;45.49;101079.00;4992787;28;20057;-51
2022/04/28 02:06:53;;;;;;;9.48;5.45;;;;;;;9.65;45.46;101077.41;4994527;28;20128;-57
2022/04/28 02:09:19;;;;;;;10.57;6.13;;;;;;;9.62;45.78;101079.28;4993786;28;20054;-58
2022/04/28 02:11:46;;;;;;;10.60;6.40;;;;;;;9.58;45.78;101073.28;4994235;28;20054;-58
2022/04/28 02:14:12;;;;;;;9.63;5.78;;;;;;;9.57;46.00;101086.47;4994110;28;20054;-58
2022/04/28 02:16:39;;;;;;;14.20;6.60;;;;;;;9.52;45.80;101074.34;4994441;28;20061;-58
2022/04/28 02:19:05;;;;;;;10.18;6.05;;;;;;;9.49;45.78;101084.94;4993499;28;20062;-62
2022/04/28 02:21:32;;;;;;;10.75;6.22;;;;;;;9.44;45.83;101076.34;4992956;28;20050;-58
2022/04/28 02:23:59;;;;;;;12.70;6.45;;;;;;;9.39;46.10;101079.09;4993727;28;20108;-57
2022/04/28 02:26:26;;;;;;;10.93;5.68;;;;;;;9.35;46.01;101077.47;4993963;28;20120;-61
2022/04/28 02:28:53;;;;;;;11.93;6.15;;;;;;;9.33;45.99;101083.69;4994315;28;20057;-58
2022/04/28 02:31:19;;;;;;;12.90;6.05;;;;;;;9.29;46.09;101080.28;4993538;28;20057;-62
2022/04/28 02:33:46;;;;;;;11.82;7.07;;;;;;;9.26;46.50;101083.00;4993753;28;20116;-50
2022/04/28 02:36:13;;;;;;;12.52;7.07;;;;;;;9.24;46.77;101079.59;4993230;28;20058;-56
2022/04/28 02:38:40;;;;;;;12.90;6.88;;;;;;;9.22;46.69;101084.00;4993693;28;20058;-52
2022/04/28 02:41:06;;;;;;;11.93;6.63;;;;;;;9.18;46.53;101083.25;4992838;28;20070;-56
2022/04/28 02:43:34;;;;;;;9.43;6.22;;;;;;;9.16;46.60;101077.16;4993754;28;20058;-57
2022/04/28 02:46:00;;;;;;;12.63;5.72;;;;;;;9.14;46.59;101084.25;4976152;28;20054;-58
2022/04/28 02:48:27;;;;;;;13.23;6.57;;;;;;;9.12;46.83;101078.16;4993451;28;20129;-59
2022/04/28 02:50:54;;;;;;;13.63;6.63;;;;;;;9.10;46.68;101078.22;4991885;28;20103;-61
2022/04/28 02:53:20;;;;;;;14.02;6.95;;;;;;;9.10;47.09;101080.84;4993311;28;20153;-59
2022/04/28 02:55:47;;;;;;;10.90;6.40;;;;;;;9.10;46.99;101079.97;4993020;28;20057;-57
2022/04/28 02:58:14;;;;;;;10.52;6.80;;;;;;;9.07;47.08;101083.56;4993337;28;20054;-55
2022/04/28 03:00:40;;;;;;;13.07;7.43;;;;;;;9.05;47.18;101084.53;4992528;28;20054;-56
2022/04/28 03:03:07;;;;;;;14.57;6.97;;;;;;;9.01;46.91;101082.88;4993339;28;20054;-59
2022/04/28 03:10:46;;;;;;;14.63;7.95;;;;;;;8.97;46.77;101084.75;4992904;28;20089;-61
2022/04/28 03:11:11;;;;;;;12.20;7.32;;;;;;;8.85;46.78;101078.06;4992282;28;20058;-56
2022/04/28 03:13:38;;;;;;;16.15;8.05;;;;;;;8.79;47.25;101091.38;4993112;28;20112;-57
2022/04/28 03:16:06;;;;;;;12.40;7.55;;;;;;;8.73;47.13;101095.03;4992434;28;20096;-59
2022/04/28 03:18:33;;;;;;;15.35;7.80;;;;;;;8.68;47.32;101095.13;4992892;28;20687;-59
2022/04/28 03:21:00;;;;;;;16.52;7.75;;;;;;;8.65;47.58;101099.63;4992519;28;20581;-58
2022/04/28 03:23:27;;;;;;;14.43;7.60;;;;;;;8.59;47.28;101092.75;4992905;28;20059;-60
2022/04/28 03:25:54;;;;;;;16.10;8.10;;;;;;;8.56;47.24;101098.13;4992252;28;20513;-60
2022/04/28 03:28:21;;;;;;;17.63;8.73;;;;;;;8.51;47.58;101099.94;4992773;28;20073;-57
2022/04/28 03:30:49;;;;;;;11.13;7.00;;;;;;;8.48;47.81;101093.03;4991896;28;20085;-60
2022/04/28 03:33:17;;;;;;;15.38;7.75;;;;;;;8.45;47.82;101095.75;4992573;28;20050;-58
2022/04/28 03:35:44;;;;;;;15.80;7.53;;;;;;;8.42;47.82;101093.19;4991253;28;20049;-59
2022/04/28 03:38:13;;;;;;;15.52;6.85;;;;;;;8.38;47.74;101096.81;4992302;28;20053;-52
2022/04/28 03:40:41;;;;;;;19.42;7.25;;;;;;;8.35;48.02;101093.34;4992419;28;20061;-53
2022/04/28 03:43:09;;;;;;;12.95;7.85;;;;;;;8.34;48.37;101096.03;4990831;28;20054;-51
2022/04/28 03:45:37;;;;;;;14.75;8.18;;;;;;;8.32;48.30;101097.81;4991011;28;20142;-50
2022/04/28 03:48:04;;;;;;;14.27;7.63;;;;;;;8.32;48.54;101097.81;4990596;28;20058;-52
2022/04/28 03:50:32;;;;;;;15.10;8.23;;;;;;;8.31;48.38;101096.97;4991095;28;20058;-56
2022/04/28 03:52:58;;;;;;;18.30;8.10;;;;;;;8.29;48.37;101093.50;4991844;28;20042;-56
2022/04/28 03:55:26;;;;;;;15.13;7.13;;;;;;;8.28;48.51;101096.19;4992175;28;20047;-56
2022/04/28 03:57:53;;;;;;;15.77;8.07;;;;;;;8.27;48.77;101086.59;4990830;28;20062;-56
2022/04/28 04:00:20;;;;;;;14.13;8.25;;;;;;;8.27;48.85;101089.22;4991758;28;20109;-59
2022/04/28 04:02:48;;;;;;;14.80;8.20;;;;;;;8.27;49.00;101086.59;4991479;28;20046;-57
2022/04/28 04:05:16;;;;;;;16.63;8.70;;;;;;;8.29;48.75;101092.66;4992264;28;20096;-58
2022/04/28 04:07:43;;;;;;;16.25;8.40;;;;;;;8.31;49.11;101091.72;4991842;28;20057;-57
2022/04/28 04:10:11;;;;;;;13.73;8.27;;;;;;;8.32;49.27;101092.56;4990538;28;20054;-60
2022/04/28 04:12:38;;;;;;;19.40;8.23;;;;;;;8.33;48.99;101092.53;4990167;28;20046;-59
2022/04/28 04:15:06;;;;;;;20.05;9.18;;;;;;;8.33;49.22;101095.16;4992033;28;20093;-59
2022/04/28 04:17:45;;;;;;;21.10;8.65;;;;;;;8.31;50.40;101096.09;4991488;28;20054;-57
2022/04/28 04:20:12;;;;;;;20.58;9.05;;;;;;;8.33;49.02;101099.53;4990250;28;20058;-60
2022/04/28 04:22:39;;;;;;;19.90;8.43;;;;;;;8.32;49.13;101098.69;4991037;28;20057;-61
2022/04/28 04:25:06;;;;;;;15.52;8.48;;;;;;;8.32;48.95;101097.81;4991482;28;20066;-57
2022/04/28 04:27:33;;;;;;;16.15;7.97;;;;;;;8.31;49.11;101099.59;4989040;28;20490;-53
2022/04/28 04:29:59;;;;;;;19.27;8.77;;;;;;;8.30;48.93;101102.25;4991316;28;20057;-58
2022/04/28 04:32:26;;;;;;;18.88;8.05;;;;;;;8.30;49.26;101112.75;4991673;28;20419;-55
2022/04/28 04:34:53;;;;;;;14.25;7.90;;;;;;;8.31;49.39;101111.84;4991278;28;20405;-58
2022/04/28 04:37:21;;;;;;;13.55;7.82;;;;;;;8.30;49.27;101112.75;4991368;28;20058;-60
2022/04/28 04:39:48;;;;;;;13.23;7.10;;;;;;;8.31;49.30;101106.59;4990812;28;20494;-55
2022/04/28 04:42:15;;;;;;;19.77;7.75;;;;;;;8.31;49.20;101106.59;4991640;28;20061;-60
2022/04/28 04:44:42;;;;;;;11.90;7.25;;;;;;;8.31;49.26;101119.72;4990874;28;20046;-59
2022/04/28 04:47:09;;;;;;;10.52;6.40;;;;;;;8.31;49.18;101115.34;4991311;28;20065;-60
2022/04/28 04:49:35;;;;;;;11.80;6.68;;;;;;;8.31;49.34;101112.72;4990748;28;20046;-59
2022/04/28 04:52:02;;;;;;;18.55;6.82;;;;;;;8.33;49.68;101123.16;4991211;28;20054;-58
2022/04/28 04:54:29;;;;;;;14.15;6.80;;;;;;;8.33;49.22;101129.28;4989323;28;20054;-59
2022/04/28 04:56:56;;;;;;;10.13;6.13;;;;;;;8.34;49.45;101120.50;4991229;28;20054;-60
2022/04/28 04:59:22;;;;;;;9.00;6.28;;;;;;;8.37;49.60;101124.78;4990625;28;20042;-60
2022/04/28 05:01:49;;;;;;;14.82;6.55;;;;;;;8.38;49.59;101126.53;4991143;28;20562;-62
2022/04/28 05:04:15;;;;;;;11.27;5.95;;;;;;;8.40;49.52;101127.34;4990652;28;20062;-59
2022/04/28 05:06:42;;;;;;;13.80;5.97;;;;;;;8.42;49.78;101122.94;4991095;28;20047;-51
2022/04/28 05:09:09;;;;;;;13.52;5.88;;;;;;;8.44;49.24;101129.00;4990360;28;20054;-53
2022/04/28 05:11:35;;;;;;;10.65;6.20;;;;;;;8.46;49.60;101139.47;4991101;28;20454;-53
2022/04/28 05:14:02;;;;;;;11.38;5.65;;;;;;;8.47;49.52;101142.03;4990119;28;20445;-56
2022/04/28 05:16:29;;;;;;;10.45;6.00;;;;;;;8.50;49.64;101145.47;4990983;28;20047;-59
2022/04/28 05:18:56;;;;;;;13.50;5.25;;;;;;;8.52;49.65;101146.31;4990468;28;20050;-58
2022/04/28 05:21:22;;;;;;;11.95;4.95;;;;;;;8.54;49.74;101140.16;4990403;28;20537;-61
2022/04/28 05:23:49;;;;;;;11.88;5.18;;;;;;;8.58;49.89;101148.78;4990919;28;20454;-59
2022/04/28 05:26:20;;;;;;;18.80;6.13;;;;;;;8.61;49.84;101151.34;4990553;28;20435;-60
2022/04/28 05:28:47;;;;;;;8.27;4.82;;;;;;;8.65;49.66;101149.50;4990773;28;20050;-59
2022/04/28 05:31:14;;;;;;;10.27;5.05;;;;;;;8.69;49.74;101159.00;4990231;28;20050;-61
2022/04/28 05:33:42;;;;;;;12.38;5.38;;;;;;;8.73;49.75;101158.03;4990748;28;20047;-59
2022/04/28 05:36:09;;;;;;;14.02;5.72;;;;;;;8.77;49.99;101157.06;4989801;28;20058;-60
2022/04/28 05:38:37;;;;;;;10.80;5.40;;;;;;;8.81;49.92;101160.44;4989387;28;20101;-62
2022/04/28 05:41:05;;;;;;;9.60;5.28;;;;;;;8.88;49.79;101166.38;4989048;28;20081;-60
2022/04/28 05:46:19;;;;;;;8.95;4.80;;;;;;;8.97;49.61;101167.00;4990354;28;20054;-60
2022/04/28 05:48:46;;;;;;;12.73;5.80;;;;;;;9.02;49.74;101163.38;4990557;28;20141;-60
2022/04/28 05:51:13;;;;;;;20.52;5.13;;;;;;;9.05;49.63;101156.28;4989366;28;20483;-59
2022/04/28 05:53:40;;;;;;;14.85;5.45;;;;;;;9.10;49.57;101161.41;4990819;28;20078;-60
2022/04/28 05:56:07;;;;;;;10.35;5.03;;;;;;;9.15;49.84;101159.50;4990297;28;20057;-59
2022/04/28 05:58:33;;;;;;;13.15;4.97;;;;;;;9.19;49.69;101155.91;4990549;28;20101;-54
2022/04/28 06:01:00;;;;;;;10.05;4.95;;;;;;;9.23;49.39;101169.78;4989878;28;20057;-61
2022/04/28 06:03:27;;;;;;;9.40;5.00;;;;;;;9.28;49.69;101170.56;4990646;28;20061;-61
2022/04/28 06:05:53;;;;;;;7.65;4.70;;;;;;;9.31;49.60;101180.94;4990243;28;20525;-60
2022/04/28 06:08:20;;;;;;;10.02;4.70;;;;;;;9.36;49.38;101180.84;4990306;28;20058;-62
2022/04/28 06:10:47;;;;;;;11.50;5.18;;;;;;;9.40;49.73;101174.56;4989786;28;20491;-60
2022/04/28 06:13:13;;;;;;;14.70;5.55;;;;;;;9.44;49.33;101176.22;4990278;28;20054;-61
2022/04/28 06:15:40;;;;;;;10.57;5.13;;;;;;;9.50;49.55;101177.81;4990241;28;20062;-60
2022/04/28 06:18:06;;;;;;;14.82;5.82;;;;;;;9.56;49.86;101182.00;4990037;28;20051;-62
2022/04/28 06:20:33;;;;;;;7.47;4.85;;;;;;;9.63;49.76;101186.16;4990189;28;20576;-60
2022/04/28 06:23:00;;;;;;;13.00;5.65;;;;;;;9.68;49.59;101186.03;4989774;28;20054;-59
2022/04/28 06:25:28;;;;;;;10.38;5.80;;;;;;;9.74;49.58;101191.97;4991045;28;20061;-60
2022/04/28 06:27:54;;;;;;;8.77;5.03;;;;;;;9.79;49.28;101191.81;4993007;28;20525;-60
2022/04/28 06:30:21;;;;;;;11.52;5.38;;;;;;;9.84;49.67;101200.47;4993763;28;20057;-62
2022/04/28 06:32:48;;;;;;;13.93;5.05;;;;;;;9.90;49.64;101199.38;4993431;28;20050;-60
2022/04/28 06:35:14;;;;;;;11.65;5.25;;;;;;;9.95;49.46;101196.63;4993879;28;20096;-61
2022/04/28 06:37:41;;;;;;;8.82;5.03;;;;;;;10.01;49.39;101204.31;4992545;28;20457;-62
2022/04/28 06:40:11;;;;;;;10.93;4.93;;;;;;;10.05;49.55;101203.31;4992304;28;20058;-58
2022/04/28 06:42:43;;;;;;;14.25;5.63;;;;;;;10.11;49.31;101202.25;4991572;28;20043;-62
2022/04/28 06:45:11;;;;;;;14.52;6.28;;;;;;;10.16;49.48;101192.44;4993863;28;20598;-60
2022/04/28 06:47:38;;;;;;;14.98;5.75;;;;;;;10.21;49.27;101201.03;4991998;28;20057;-60
2022/04/28 06:50:07;;;;;;;13.52;5.25;;;;;;;10.26;49.09;101195.66;4993357;28;20058;-60
2022/04/28 06:52:38;;;;;;;9.52;5.05;;;;;;;10.29;49.35;101193.75;4991885;28;20053;-60
2022/04/28 06:55:06;;;;;;;11.88;5.10;;;;;;;10.36;49.10;101201.47;4993388;28;20047;-60
2022/04/28 06:57:33;;;;;;;11.55;5.40;;;;;;;10.42;48.79;101206.53;4991920;28;20604;-61
2022/04/28 07:00:02;;;;;;;12.23;4.75;;;;;;;10.46;48.85;101200.28;4993363;28;20043;-60
2022/04/28 07:02:30;;;;;;;8.98;4.68;;;;;;;10.50;48.74;101201.06;4993045;28;20054;-60
2022/04/28 07:04:57;;;;;;;10.05;5.00;;;;;;;10.54;48.68;101200.88;4992056;28;20046;-60
2022/04/28 07:07:24;;;;;;;8.00;4.50;;;;;;;10.60;48.68;101205.09;4992932;28;20050;-62
2022/04/28 07:09:51;;;;;;;9.82;4.40;;;;;;;10.65;48.40;101205.78;4993107;28;20057;-60
2022/04/28 07:12:32;;;;;;;12.43;4.22;;;;;;;10.71;48.59;101207.34;4992598;28;20490;-61
2022/04/28 07:14:59;;;;;;;11.23;4.55;;;;;;;10.75;48.51;101213.38;4993068;28;20057;-60
2022/04/28 07:17:26;;;;;;;11.30;4.70;;;;;;;10.80;48.51;101211.44;4993004;28;20061;-62
2022/04/28 07:19:52;;;;;;;11.57;4.95;;;;;;;10.85;48.62;101225.34;4992400;28;20470;-60
2022/04/28 07:22:19;;;;;;;10.05;5.03;;;;;;;10.91;48.65;101224.22;4992873;28;20054;-60
2022/04/28 07:24:45;;;;;;;13.70;5.28;;;;;;;10.97;48.74;101237.22;4992755;28;20046;-60
2022/04/28 07:27:12;;;;;;;10.52;5.55;;;;;;;11.04;48.69;101249.28;4992967;28;20066;-62
2022/04/28 07:29:39;;;;;;;8.90;5.32;;;;;;;11.10;48.65;101244.69;4990988;28;20061;-60
2022/04/28 07:32:07;;;;;;;11.07;4.25;;;;;;;11.17;48.72;101239.13;4992807;28;20081;-56
2022/04/28 07:34:35;;;;;;;10.50;4.70;;;;;;;11.24;48.61;101239.78;4991040;28;20101;-60
2022/04/28 07:37:03;;;;;;;17.73;5.20;;;;;;;11.29;48.37;101252.81;4992256;28;20516;-60
2022/04/28 07:39:30;;;;;;;20.63;5.45;;;;;;;11.33;48.38;101250.00;4992397;28;20081;-61
2022/04/28 07:41:56;;;;;;;10.05;4.68;;;;;;;11.38;48.37;101247.19;4992529;28;20096;-62
2022/04/28 07:44:23;;;;;;;9.27;5.13;;;;;;;11.44;48.43;101254.88;4992252;28;20502;-60
2022/04/28 07:46:49;;;;;;;12.55;5.00;;;;;;;11.49;48.40;101243.28;4992547;28;20490;-60
2022/04/28 07:49:16;;;;;;;8.25;4.00;;;;;;;11.55;48.38;101243.09;4992289;28;20387;-59
2022/04/28 07:51:42;;;;;;;9.25;4.10;;;;;;;11.60;48.22;101241.97;4992341;28;20062;-62
2022/04/28 07:54:09;;;;;;;11.40;4.43;;;;;;;11.67;47.95;101254.94;4992134;28;20058;-60
2022/04/28 07:56:37;;;;;;;9.05;3.95;;;;;;;11.72;47.94;101255.63;4992214;28;20057;-58
2022/04/28 07:59:03;;;;;;;12.82;4.22;;;;;;;11.79;47.92;101254.50;4992199;28;20054;-60
2022/04/28 08:01:49;;;;;;;12.20;4.22;;;;;;;11.88;47.58;101249.78;4992119;28;20137;-56
2022/04/28 08:04:16;;;;;;;8.85;4.32;;;;;;;11.93;47.85;101253.94;4991023;28;20053;-58
2022/04/28 08:06:42;;;;;;;12.15;4.40;;;;;;;11.99;47.87;101255.47;4992250;28;20113;-58
2022/04/28 08:09:09;;;;;;;10.82;5.03;;;;;;;12.05;47.74;101262.31;4991657;28;20054;-62
2022/04/28 08:11:38;;;;;;;11.90;4.82;;;;;;;12.12;47.66;101267.31;4992054;28;20052;-58
2022/04/28 08:14:04;;;;;;;7.68;4.25;;;;;;;12.20;47.73;101259.13;4991696;28;20507;-60
2022/04/28 08:16:31;;;;;;;7.82;4.15;;;;;;;12.27;47.57;101264.13;4991636;28;20050;-59
2022/04/28 08:18:58;;;;;;;10.80;4.70;;;;;;;12.33;47.49;101263.88;4991617;28;20061;-62
2022/04/28 08:21:24;;;;;;;11.50;4.53;;;;;;;12.38;47.45;101256.66;4991712;28;20046;-61
2022/04/28 08:23:51;;;;;;;11.23;4.30;;;;;;;12.46;47.37;101266.91;4991890;28;20049;-61
2022/04/28 08:26:18;;;;;;;14.15;4.40;;;;;;;12.53;47.20;101264.88;4990568;28;20054;-60
2022/04/28 08:28:44;;;;;;;11.70;4.03;;;;;;;12.59;47.05;101272.53;4991607;28;20042;-60
2022/04/28 08:31:11;;;;;;;12.05;3.85;;;;;;;12.66;47.22;101270.47;4991377;28;20054;-60
2022/04/28 08:33:44;;;;;;;8.77;3.90;;;;;;;12.73;47.28;101270.19;4991800;28;20050;-60
2022/04/28 08:36:13;;;;;;;10.13;4.13;;;;;;;12.81;47.31;101274.28;4991517;28;20054;-59
2022/04/28 08:38:40;;;;;;;11.30;3.92;;;;;;;12.89;46.98;101264.25;4991241;28;20414;-61
2022/04/28 08:41:09;;;;;;;11.20;3.92;;;;;;;12.96;47.32;101276.28;4991168;28;20073;-58
2022/04/28 08:43:37;;;;;;;9.13;4.18;;;;;;;13.07;47.08;101281.09;4991317;28;20065;-61
2022/04/28 08:48:52;;;;;;;11.07;4.32;;;;;;;13.25;46.59;101271.53;4990793;28;20085;-57
2022/04/28 08:51:19;;;;;;;9.35;3.95;;;;;;;13.34;46.68;101280.81;4989711;28;20057;-54
2022/04/28 08:53:49;;;;;;;9.77;3.65;;;;;;;13.44;46.45;101281.28;4989890;28;20714;-58
2022/04/28 08:56:17;;;;;;;9.48;3.88;;;;;;;13.54;46.28;101276.47;4989998;28;20065;-61
2022/04/28 08:58:44;;;;;;;9.27;3.65;;;;;;;13.62;46.76;101277.00;4991366;28;20046;-59
2022/04/28 09:01:10;;;;;;;12.90;3.80;;;;;;;13.70;46.41;101273.97;4990816;28;20057;-62
2022/04/28 09:03:37;;;;;;;12.70;3.40;;;;;;;13.80;46.20;101274.44;4990050;28;20056;-58
2022/04/28 09:06:29;;;;;;;8.93;3.63;;;;;;;13.92;46.42;101276.50;4990912;28;20455;-59
2022/04/28 09:09:13;;;;;;;7.70;3.78;;;;;;;14.02;46.18;101281.38;4970398;28;20062;-60
2022/04/28 09:11:40;;;;;;;9.27;3.80;;;;;;;14.17;45.97;101283.28;4971614;28;20058;-59
2022/04/28 09:14:10;;;;;;;8.85;3.67;;;;;;;14.29;45.37;101275.69;4971641;28;20543;-59
2022/04/28 09:16:42;;;;;;;10.45;3.97;;;;;;;14.39;44.94;101282.25;4970291;28;20077;-64
2022/04/28 09:19:15;;;;;;;11.50;4.40;;;;;;;14.52;45.40;101281.63;4971376;28;20051;-59
2022/04/28 09:21:42;;;;;;;6.43;3.47;;;;;;;14.63;45.13;101281.09;4970257;28;20078;-60
2022/04/28 09:24:10;;;;;;;10.95;3.47;;;;;;;14.71;45.62;101271.84;4971660;28;20063;-60
2022/04/28 09:26:38;;;;;;;10.15;3.85;;;;;;;14.83;45.41;101272.19;4971445;28;20055;-62
2022/04/28 09:29:06;;;;;;;12.80;3.33;;;;;;;14.93;45.32;101268.16;4971455;28;20047;-60
2022/04/28 09:31:34;;;;;;;9.25;3.60;;;;;;;15.05;45.21;101264.00;4971351;28;20419;-60
2022/04/28 09:34:22;;;;;;;8.13;3.47;;;;;;;15.20;44.68;101274.75;4970254;28;20062;-63
2022/04/28 09:36:50;;;;;;;8.52;3.47;;;;;;;15.31;44.49;101274.19;4971221;28;20073;-62
2022/04/28 09:44:54;;;;;;;8.80;3.90;;;;;;;15.58;43.64;101274.50;4971611;28;20047;-61
2022/04/28 09:47:23;;;;;;;8.30;3.40;;;;;;;15.64;43.99;101268.84;4971096;28;20570;-62
2022/04/28 09:49:55;;;;;;;7.60;3.90;;;;;;;15.68;43.42;101266.91;4969903;28;20043;-58
2022/04/28 09:52:25;;;;;;;8.65;3.20;;;;;;;15.74;43.68;101271.03;4971212;28;20059;-61
2022/04/28 09:54:57;;;;;;;10.75;4.40;;;;;;;15.82;44.10;101262.63;4971616;28;20059;-60
2022/04/28 09:57:24;;;;;;;10.88;3.40;;;;;;;15.91;43.61;101262.13;4969962;28;20058;-60
2022/04/28 09:59:56;;;;;;;8.02;3.80;;;;;;;15.97;42.79;101259.19;4972449;28;20050;-61
2022/04/28 10:02:25;;;;;;;11.95;4.45;;;;;;;16.08;43.42;101260.38;4973695;28;20063;-60
2022/04/28 10:04:53;;;;;;;10.43;3.67;;;;;;;16.18;43.73;101263.38;4974928;28;20499;-57
2022/04/28 10:07:21;;;;;;;7.65;3.33;;;;;;;16.27;43.21;101260.19;4973738;28;20058;-57
2022/04/28 10:09:51;;;;;;;13.60;3.78;;;;;;;16.36;42.66;101261.44;4973422;28;20066;-58
2022/04/28 10:12:20;;;;;;;8.32;3.08;;;;;;;16.44;41.80;101250.38;4974832;28;20078;-56
2022/04/28 10:14:49;;;;;;;7.65;3.25;;;;;;;16.48;42.36;101247.44;4973587;28;20435;-58
2022/04/28 10:17:21;;;;;;;8.25;3.40;;;;;;;16.50;42.77;101255.34;4974430;28;20051;-58
2022/04/28 10:19:53;;;;;;;8.57;3.22;;;;;;;16.54;42.39;101256.88;4973179;28;20047;-59
2022/04/28 10:22:31;;;;;;;8.68;3.33;;;;;;;16.61;42.50;101257.38;4974677;28;20109;-61
2022/04/28 10:33:25;;;;;;;7.80;3.95;;;;;;;17.12;42.59;101261.53;4974192;28;20055;-61
2022/04/28 10:35:57;;;;;;;6.28;3.47;;;;;;;17.22;42.37;101259.13;4972403;28;20058;-57
2022/04/28 10:38:31;;;;;;;16.25;4.35;;;;;;;17.36;41.96;101255.63;4972956;28;20126;-56
2022/04/28 10:41:04;;;;;;;12.30;4.00;;;;;;;17.52;42.24;101260.84;4972925;28;20487;-58
2022/04/28 10:43:33;;;;;;;8.30;4.30;;;;;;;17.71;42.35;101260.56;4974073;28;20051;-62
2022/04/28 10:46:22;;;;;;;11.13;4.78;;;;;;;17.88;40.97;101259.50;4974141;28;20492;-58
2022/04/28 10:48:53;;;;;;;10.60;4.47;;;;;;;18.10;40.78;101261.66;4974196;28;20054;-59
2022/04/28 10:51:22;;;;;;;7.18;4.10;;;;;;;18.32;41.44;101257.56;4972728;28;20630;-59
2022/04/28 10:54:03;;;;;;;10.15;4.65;;;;;;;18.62;42.50;101261.00;4972770;28;20154;-58
2022/04/28 10:56:41;;;;;;;8.55;4.50;;;;;;;19.00;41.75;101259.34;4973844;28;20503;-58
2022/04/28 10:59:29;;;;;;;10.15;4.45;;;;;;;19.56;40.82;101251.97;4973455;28;20046;-60
2022/04/28 11:01:56;;;;;;;11.93;4.20;;;;;;;20.21;41.70;101257.13;4973976;28;20113;-54
2022/04/28 11:04:25;;;;;;;7.55;4.10;;;;;;;20.84;39.79;101248.88;4973743;28;20392;-58
2022/04/28 11:06:56;;;;;;;8.07;4.18;;;;;;;21.44;38.17;101242.50;4972376;28;20495;-62
2022/04/28 11:09:39;;;;;;;5.07;3.33;;;;;;;22.06;37.83;101242.06;4973436;28;20065;-61
2022/04/28 11:12:08;;;;;;;6.25;3.92;;;;;;;22.64;37.13;101246.25;4973182;28;20117;-63
2022/04/28 11:15:00;;;;;;;8.40;3.85;;;;;;;23.16;36.33;101242.75;4973717;28;20054;-61
2022/04/28 11:17:30;;;;;;;7.95;3.53;;;;;;;23.70;36.15;101237.19;4973506;28;20061;-54
2022/04/28 11:20:04;;;;;;;6.57;3.75;;;;;;;24.16;34.72;101247.47;4973314;28;20058;-58
2022/04/28 11:22:31;;;;;;;7.97;3.95;;;;;;;24.61;35.18;101251.44;4973849;28;20055;-56
2022/04/28 11:24:57;;;;;;;5.80;3.45;;;;;;;25.01;34.39;101232.53;4972385;28;20046;-61
2022/04/28 11:27:27;;;;;;;7.15;3.00;;;;;;;25.34;33.82;101236.50;4973625;28;20059;-59
2022/04/28 11:29:58;;;;;;;7.22;3.13;;;;;;;25.69;32.64;101228.72;4971803;28;20522;-59
2022/04/28 11:32:25;;;;;;;6.70;3.35;;;;;;;26.07;32.71;101236.69;4972013;28;20054;-58
2022/04/28 11:34:52;;;;;;;7.75;3.05;;;;;;;26.41;32.32;101229.75;4973416;28;20050;-58
2022/04/28 11:37:24;;;;;;;5.28;3.40;;;;;;;26.69;30.92;101234.19;4973157;28;20055;-58
2022/04/28 11:39:56;;;;;;;6.20;3.28;;;;;;;26.97;29.94;101234.03;4973280;28;20063;-60
2022/04/28 11:42:44;;;;;;;6.13;3.47;;;;;;;27.30;30.51;101232.38;4972193;28;20069;-58
2022/04/28 11:45:12;;;;;;;5.72;3.05;;;;;;;27.56;29.86;101231.47;4972113;28;20058;-59
2022/04/28 11:47:44;;;;;;;4.28;2.97;;;;;;;27.80;28.36;101226.28;4973062;28;20062;-60
2022/04/28 11:50:19;;;;;;;10.90;3.35;;;;;;;28.01;29.34;101224.97;4971501;28;20062;-59
2022/04/28 11:52:57;;;;;;;6.65;3.28;;;;;;;28.23;28.93;101227.03;4971660;28;20047;-60
2022/04/28 11:55:27;;;;;;;7.22;3.13;;;;;;;28.49;28.49;101227.91;4973182;28;20050;-58
2022/04/28 11:57:54;;;;;;;6.85;3.53;;;;;;;28.68;28.27;101225.84;4972878;28;20053;-60
2022/04/28 12:00:25;;;;;;;4.90;3.53;;;;;;;28.83;27.85;101221.44;4971413;28;20050;-58